sensor_id;sensor_type;location;lat;lon;timestamp;pressure;altitude;pressure_sealevel;temperature;humidity
57074;BME280;69035;54.392;18.574;2023-04-09T00:00:12;102378.38;;;8.88;76.41
57074;BME280;69035;54.392;18.574;2023-04-09T00:03:02;102369.41;;;8.79;77.13
57074;BME280;69035;54.392;18.574;2023-04-09T00:05:31;102376.47;;;8.81;76.99
57074;BME280;69035;54.392;18.574;2023-04-09T00:07:59;102379.09;;;8.83;77.71
57074;BME280;69035;54.392;18.574;2023-04-09T00:10:30;102378.16;;;8.81;76.79
57074;BME280;69035;54.392;18.574;2023-04-09T00:12:58;102377.19;;;8.76;78.88
57074;BME280;69035;54.392;18.574;2023-04-09T00:15:27;102382.31;;;8.69;78.77
57074;BME280;69035;54.392;18.574;2023-04-09T00:17:58;102361.13;;;8.60;77.95
57074;BME280;69035;54.392;18.574;2023-04-09T00:20:27;102383.97;;;8.66;79.10
57074;BME280;69035;54.392;18.574;2023-04-09T00:22:56;102379.72;;;8.71;77.56
57074;BME280;69035;54.392;18.574;2023-04-09T00:25:25;102372.72;;;8.71;77.52
57074;BME280;69035;54.392;18.574;2023-04-09T00:27:56;102365.72;;;8.70;77.58
57074;BME280;69035;54.392;18.574;2023-04-09T00:30:27;102372.94;;;8.81;76.52
57074;BME280;69035;54.392;18.574;2023-04-09T00:32:56;102373.84;;;8.81;77.39
57074;BME280;69035;54.392;18.574;2023-04-09T00:35:25;102374.75;;;8.83;77.60
57074;BME280;69035;54.392;18.574;2023-04-09T00:37:54;102376.53;;;8.84;77.91
57074;BME280;69035;54.392;18.574;2023-04-09T00:40:23;102375.56;;;8.81;77.92
57074;BME280;69035;54.392;18.574;2023-04-09T00:42:52;102374.69;;;8.80;77.85
57074;BME280;69035;54.392;18.574;2023-04-09T00:45:22;102367.84;;;8.87;77.78
57074;BME280;69035;54.392;18.574;2023-04-09T00:47:52;102367.88;;;8.88;77.00
57074;BME280;69035;54.392;18.574;2023-04-09T00:50:22;102368.69;;;8.86;77.39
57074;BME280;69035;54.392;18.574;2023-04-09T00:52:50;102365.13;;;8.84;77.67
57074;BME280;69035;54.392;18.574;2023-04-09T00:55:20;102364.31;;;8.86;78.39
57074;BME280;69035;54.392;18.574;2023-04-09T00:57:48;102367.94;;;8.92;77.52
57074;BME280;69035;54.392;18.574;2023-04-09T01:00:18;102365.44;;;8.98;77.03
57074;BME280;69035;54.392;18.574;2023-04-09T01:02:48;102369.03;;;9.01;76.41
57074;BME280;69035;54.392;18.574;2023-04-09T01:05:19;102372.44;;;8.97;76.04
57074;BME280;69035;54.392;18.574;2023-04-09T01:07:56;102371.41;;;8.90;77.29
57074;BME280;69035;54.392;18.574;2023-04-09T01:10:33;102373.13;;;8.88;76.33
57074;BME280;69035;54.392;18.574;2023-04-09T01:13:07;102372.09;;;8.82;76.57
57074;BME280;69035;54.392;18.574;2023-04-09T01:15:42;102372.72;;;8.71;75.78
57074;BME280;69035;54.392;18.574;2023-04-09T01:18:19;102351.16;;;8.45;76.94
57074;BME280;69035;54.392;18.574;2023-04-09T01:20:55;102366.16;;;8.51;76.95
57074;BME280;69035;54.392;18.574;2023-04-09T01:23:31;102370.38;;;8.46;76.36
57074;BME280;69035;54.392;18.574;2023-04-09T01:26:06;102364.06;;;8.37;76.01
57074;BME280;69035;54.392;18.574;2023-04-09T01:28:52;102370.91;;;8.32;76.19
57074;BME280;69035;54.392;18.574;2023-04-09T01:31:27;102372.50;;;8.26;76.45
57074;BME280;69035;54.392;18.574;2023-04-09T01:33:58;102375.00;;;8.21;76.70
57074;BME280;69035;54.392;18.574;2023-04-09T01:36:29;102365.09;;;8.09;76.44
57074;BME280;69035;54.392;18.574;2023-04-09T01:38:59;102371.31;;;8.13;76.32
57074;BME280;69035;54.392;18.574;2023-04-09T01:41:31;102345.78;;;8.04;75.75
57074;BME280;69035;54.392;18.574;2023-04-09T01:44:02;102363.50;;;8.14;76.21
57074;BME280;69035;54.392;18.574;2023-04-09T01:46:35;102371.28;;;8.11;76.17
57074;BME280;69035;54.392;18.574;2023-04-09T01:49:05;102359.78;;;8.06;75.33
57074;BME280;69035;54.392;18.574;2023-04-09T01:51:35;102373.88;;;8.10;77.04
57074;BME280;69035;54.392;18.574;2023-04-09T01:54:04;102377.50;;;8.16;76.26
57074;BME280;69035;54.392;18.574;2023-04-09T01:56:44;102375.69;;;8.14;75.97
57074;BME280;69035;54.392;18.574;2023-04-09T01:59:14;102378.47;;;8.20;75.92
57074;BME280;69035;54.392;18.574;2023-04-09T02:01:45;102356.47;;;8.13;75.77
57074;BME280;69035;54.392;18.574;2023-04-09T02:04:19;102366.38;;;8.25;74.83
57074;BME280;69035;54.392;18.574;2023-04-09T02:06:57;102378.81;;;8.34;75.25
57074;BME280;69035;54.392;18.574;2023-04-09T02:09:28;102381.38;;;8.32;74.84
57074;BME280;69035;54.392;18.574;2023-04-09T02:12:03;102382.25;;;8.33;74.94
57074;BME280;69035;54.392;18.574;2023-04-09T02:14:34;102386.63;;;8.32;74.98
57074;BME280;69035;54.392;18.574;2023-04-09T02:17:05;102386.69;;;8.35;75.67
57074;BME280;69035;54.392;18.574;2023-04-09T02:19:38;102395.56;;;8.41;75.58
57074;BME280;69035;54.392;18.574;2023-04-09T02:22:07;102387.63;;;8.37;75.20
57074;BME280;69035;54.392;18.574;2023-04-09T02:24:35;102385.75;;;8.32;75.21
57074;BME280;69035;54.392;18.574;2023-04-09T02:27:05;102382.13;;;8.27;75.06
57074;BME280;69035;54.392;18.574;2023-04-09T02:29:36;102380.38;;;8.26;75.47
57074;BME280;69035;54.392;18.574;2023-04-09T02:32:05;102377.78;;;8.27;75.41
57074;BME280;69035;54.392;18.574;2023-04-09T02:34:33;102379.53;;;8.28;75.54
57074;BME280;69035;54.392;18.574;2023-04-09T02:37:02;102380.41;;;8.27;75.36
57074;BME280;69035;54.392;18.574;2023-04-09T02:39:32;102378.69;;;8.29;75.46
57074;BME280;69035;54.392;18.574;2023-04-09T02:42:00;102382.25;;;8.33;75.40
57074;BME280;69035;54.392;18.574;2023-04-09T02:46:59;102369.13;;;8.31;75.06
57074;BME280;69035;54.392;18.574;2023-04-09T02:49:28;102378.03;;;8.38;75.31
57074;BME280;69035;54.392;18.574;2023-04-09T02:51:57;102375.44;;;8.40;75.02
57074;BME280;69035;54.392;18.574;2023-04-09T02:54:26;102371.97;;;8.39;75.21
57074;BME280;69035;54.392;18.574;2023-04-09T02:56:55;102375.53;;;8.43;75.20
57074;BME280;69035;54.392;18.574;2023-04-09T02:59:24;102377.41;;;8.47;75.77
57074;BME280;69035;54.392;18.574;2023-04-09T03:01:56;102370.53;;;8.50;75.15
57074;BME280;69035;54.392;18.574;2023-04-09T03:04:26;102378.38;;;8.50;75.83
57074;BME280;69035;54.392;18.574;2023-04-09T03:06:55;102375.81;;;8.53;75.39
57074;BME280;69035;54.392;18.574;2023-04-09T03:09:24;102377.53;;;8.53;75.95
57074;BME280;69035;54.392;18.574;2023-04-09T03:11:53;102371.47;;;8.54;75.81
57074;BME280;69035;54.392;18.574;2023-04-09T03:14:22;102383.69;;;8.53;75.72
57074;BME280;69035;54.392;18.574;2023-04-09T03:16:51;102372.31;;;8.53;76.29
57074;BME280;69035;54.392;18.574;2023-04-09T03:19:20;102376.66;;;8.52;75.63
57074;BME280;69035;54.392;18.574;2023-04-09T03:21:50;102378.47;;;8.55;76.02
57074;BME280;69035;54.392;18.574;2023-04-09T03:24:23;102375.81;;;8.53;76.41
57074;BME280;69035;54.392;18.574;2023-04-09T03:26:52;102377.63;;;8.58;76.74
57074;BME280;69035;54.392;18.574;2023-04-09T03:29:21;102377.72;;;8.59;76.05
57074;BME280;69035;54.392;18.574;2023-04-09T03:31:51;102372.34;;;8.54;75.84
57074;BME280;69035;54.392;18.574;2023-04-09T03:34:19;102378.56;;;8.58;76.06
57074;BME280;69035;54.392;18.574;2023-04-09T03:36:53;102379.47;;;8.60;76.08
57074;BME280;69035;54.392;18.574;2023-04-09T03:39:25;102374.22;;;8.60;75.62
57074;BME280;69035;54.392;18.574;2023-04-09T03:41:57;102375.94;;;8.58;75.81
57074;BME280;69035;54.392;18.574;2023-04-09T03:44:30;102377.53;;;8.53;75.34
57074;BME280;69035;54.392;18.574;2023-04-09T03:47:07;102375.84;;;8.55;75.72
57074;BME280;69035;54.392;18.574;2023-04-09T03:49:37;102373.25;;;8.55;75.70
57074;BME280;69035;54.392;18.574;2023-04-09T03:52:16;102372.38;;;8.56;75.78
57074;BME280;69035;54.392;18.574;2023-04-09T03:54:52;102367.91;;;8.50;75.15
57074;BME280;69035;54.392;18.574;2023-04-09T03:57:23;102372.91;;;8.43;75.51
57074;BME280;69035;54.392;18.574;2023-04-09T03:59:54;102370.13;;;8.36;76.03
57074;BME280;69035;54.392;18.574;2023-04-09T04:02:23;102369.34;;;8.39;75.87
57074;BME280;69035;54.392;18.574;2023-04-09T04:04:59;102373.56;;;8.34;75.44
57074;BME280;69035;54.392;18.574;2023-04-09T04:07:34;102370.88;;;8.31;75.92
57074;BME280;69035;54.392;18.574;2023-04-09T04:10:11;102367.38;;;8.30;75.90
57074;BME280;69035;54.392;18.574;2023-04-09T04:12:43;102367.31;;;8.27;76.17
57074;BME280;69035;54.392;18.574;2023-04-09T04:15:21;102372.44;;;8.24;75.46
57074;BME280;69035;54.392;18.574;2023-04-09T04:17:54;102372.50;;;8.26;76.08
57074;BME280;69035;54.392;18.574;2023-04-09T04:20:43;102377.56;;;8.19;75.49
57074;BME280;69035;54.392;18.574;2023-04-09T04:23:15;102366.19;;;8.17;76.29
57074;BME280;69035;54.392;18.574;2023-04-09T04:25:56;102363.56;;;8.17;75.92
57074;BME280;69035;54.392;18.574;2023-04-09T04:28:33;102358.19;;;8.11;76.11
57074;BME280;69035;54.392;18.574;2023-04-09T04:31:06;102375.59;;;8.11;75.89
57074;BME280;69035;54.392;18.574;2023-04-09T04:33:36;102380.00;;;8.12;75.79
57074;BME280;69035;54.392;18.574;2023-04-09T04:36:11;102372.91;;;8.08;76.41
57074;BME280;69035;54.392;18.574;2023-04-09T04:38:46;102366.88;;;8.10;76.38
57074;BME280;69035;54.392;18.574;2023-04-09T04:41:21;102371.31;;;8.13;75.93
57074;BME280;69035;54.392;18.574;2023-04-09T04:43:57;102370.38;;;8.11;75.98
57074;BME280;69035;54.392;18.574;2023-04-09T04:46:25;102366.00;;;8.10;75.51
57074;BME280;69035;54.392;18.574;2023-04-09T04:48:55;102376.78;;;8.22;75.82
57074;BME280;69035;54.392;18.574;2023-04-09T04:51:23;102375.19;;;8.29;74.92
57074;BME280;69035;54.392;18.574;2023-04-09T04:54:06;102367.31;;;8.27;74.57
57074;BME280;69035;54.392;18.574;2023-04-09T04:56:35;102384.19;;;8.40;74.40
57074;BME280;69035;54.392;18.574;2023-04-09T04:59:14;102379.53;;;8.28;74.70
57074;BME280;69035;54.392;18.574;2023-04-09T05:01:56;102389.25;;;8.32;74.16
57074;BME280;69035;54.392;18.574;2023-04-09T05:04:29;102386.69;;;8.35;74.25
57074;BME280;69035;54.392;18.574;2023-04-09T05:06:58;102385.94;;;8.40;74.25
57074;BME280;69035;54.392;18.574;2023-04-09T05:09:28;102385.97;;;8.41;73.80
57074;BME280;69035;54.392;18.574;2023-04-09T05:12:04;102385.81;;;8.35;73.52
57074;BME280;69035;54.392;18.574;2023-04-09T05:14:34;102382.34;;;8.34;73.69
57074;BME280;69035;54.392;18.574;2023-04-09T05:17:02;102376.50;;;8.45;73.84
57074;BME280;69035;54.392;18.574;2023-04-09T05:19:40;102386.28;;;8.52;73.17
57074;BME280;69035;54.392;18.574;2023-04-09T05:22:10;102381.03;;;8.52;72.69
57074;BME280;69035;54.392;18.574;2023-04-09T05:24:41;102382.00;;;8.57;72.55
57074;BME280;69035;54.392;18.574;2023-04-09T05:27:10;102381.13;;;8.57;72.26
57074;BME280;69035;54.392;18.574;2023-04-09T05:29:40;102377.81;;;8.64;72.34
57074;BME280;69035;54.392;18.574;2023-04-09T05:32:09;102373.53;;;8.69;71.92
57074;BME280;69035;54.392;18.574;2023-04-09T05:34:39;102377.03;;;8.68;71.51
57074;BME280;69035;54.392;18.574;2023-04-09T05:37:07;102384.94;;;8.69;70.67
57074;BME280;69035;54.392;18.574;2023-04-09T05:39:37;102377.97;;;8.71;70.21
57074;BME280;69035;54.392;18.574;2023-04-09T05:42:07;102385.09;;;8.77;71.14
57074;BME280;69035;54.392;18.574;2023-04-09T05:44:55;102382.47;;;8.77;69.81
57074;BME280;69035;54.392;18.574;2023-04-09T05:47:24;102385.34;;;8.89;70.89
57074;BME280;69035;54.392;18.574;2023-04-09T05:50:02;102376.09;;;9.05;69.91
57074;BME280;69035;54.392;18.574;2023-04-09T05:52:32;102382.41;;;9.15;69.38
57074;BME280;69035;54.392;18.574;2023-04-09T05:55:02;102385.88;;;9.14;68.98
57074;BME280;69035;54.392;18.574;2023-04-09T05:57:44;102377.03;;;9.07;69.26
57074;BME280;69035;54.392;18.574;2023-04-09T06:00:14;102376.00;;;9.01;68.86
57074;BME280;69035;54.392;18.574;2023-04-09T06:02:45;102374.09;;;8.94;67.67
57074;BME280;69035;54.392;18.574;2023-04-09T06:05:15;102379.41;;;8.97;68.41
57074;BME280;69035;54.392;18.574;2023-04-09T06:07:44;102383.88;;;9.01;66.88
57074;BME280;69035;54.392;18.574;2023-04-09T06:10:13;102375.16;;;9.02;66.41
57074;BME280;69035;54.392;18.574;2023-04-09T06:12:44;102380.50;;;9.06;66.54
57074;BME280;69035;54.392;18.574;2023-04-09T06:15:14;102367.53;;;9.14;65.83
57074;BME280;69035;54.392;18.574;2023-04-09T06:17:43;102375.56;;;9.20;65.81
57074;BME280;69035;54.392;18.574;2023-04-09T06:20:12;102373.16;;;9.33;65.75
57074;BME280;69035;54.392;18.574;2023-04-09T06:22:41;102374.28;;;9.44;64.48
57074;BME280;69035;54.392;18.574;2023-04-09T06:25:10;102370.72;;;9.43;64.56
57074;BME280;69035;54.392;18.574;2023-04-09T06:27:38;102368.22;;;9.48;64.17
57074;BME280;69035;54.392;18.574;2023-04-09T06:30:10;102368.53;;;9.65;64.12
57074;BME280;69035;54.392;18.574;2023-04-09T06:32:39;102363.47;;;9.74;63.75
57074;BME280;69035;54.392;18.574;2023-04-09T06:35:20;102370.66;;;9.85;62.56
57074;BME280;69035;54.392;18.574;2023-04-09T06:37:48;102376.84;;;9.88;62.96
57074;BME280;69035;54.392;18.574;2023-04-09T06:40:17;102378.69;;;9.94;62.14
57074;BME280;69035;54.392;18.574;2023-04-09T06:42:49;102379.81;;;10.08;62.22
57074;BME280;69035;54.392;18.574;2023-04-09T06:45:32;102379.09;;;10.19;61.25
57074;BME280;69035;54.392;18.574;2023-04-09T06:48:00;102384.56;;;10.29;60.83
57074;BME280;69035;54.392;18.574;2023-04-09T06:50:29;102383.00;;;10.41;61.27
57074;BME280;69035;54.392;18.574;2023-04-09T06:52:58;102388.53;;;10.58;60.51
57074;BME280;69035;54.392;18.574;2023-04-09T06:55:27;102383.56;;;10.78;61.02
57074;BME280;69035;54.392;18.574;2023-04-09T06:57:56;102386.41;;;10.93;60.03
57074;BME280;69035;54.392;18.574;2023-04-09T07:00:24;102390.06;;;11.05;59.84
57074;BME280;69035;54.392;18.574;2023-04-09T07:02:55;102394.59;;;11.16;59.15
57074;BME280;69035;54.392;18.574;2023-04-09T07:05:24;102399.06;;;11.22;58.14
57074;BME280;69035;54.392;18.574;2023-04-09T07:07:53;102374.50;;;11.22;57.86
57074;BME280;69035;54.392;18.574;2023-04-09T07:10:24;102391.19;;;11.24;56.76
57074;BME280;69035;54.392;18.574;2023-04-09T07:12:55;102381.47;;;11.20;56.91
57074;BME280;69035;54.392;18.574;2023-04-09T07:15:26;102388.63;;;11.30;56.58
57074;BME280;69035;54.392;18.574;2023-04-09T07:17:57;102383.53;;;11.44;56.99
57074;BME280;69035;54.392;18.574;2023-04-09T07:20:27;102388.91;;;11.55;56.39
57074;BME280;69035;54.392;18.574;2023-04-09T07:22:55;102390.88;;;11.73;56.29
57074;BME280;69035;54.392;18.574;2023-04-09T07:25:24;102389.31;;;11.92;56.01
57074;BME280;69035;54.392;18.574;2023-04-09T07:27:53;102389.47;;;12.07;55.28
57074;BME280;69035;54.392;18.574;2023-04-09T07:30:22;102389.59;;;12.19;55.24
57074;BME280;69035;54.392;18.574;2023-04-09T07:32:51;102391.47;;;12.36;54.54
57074;BME280;69035;54.392;18.574;2023-04-09T07:35:22;102370.28;;;12.22;52.76
57074;BME280;69035;54.392;18.574;2023-04-09T07:37:50;102393.22;;;12.34;53.50
57074;BME280;69035;54.392;18.574;2023-04-09T07:40:19;102393.41;;;12.59;54.24
57074;BME280;69035;54.392;18.574;2023-04-09T07:42:48;102387.31;;;12.70;52.72
57074;BME280;69035;54.392;18.574;2023-04-09T07:45:18;102396.13;;;12.74;52.74
57074;BME280;69035;54.392;18.574;2023-04-09T07:47:47;102392.63;;;12.78;52.27
57074;BME280;69035;54.392;18.574;2023-04-09T07:50:15;102390.84;;;12.72;52.99
57074;BME280;69035;54.392;18.574;2023-04-09T07:52:46;102389.09;;;12.71;53.10
57074;BME280;69035;54.392;18.574;2023-04-09T07:55:15;102394.41;;;12.78;53.55
57074;BME280;69035;54.392;18.574;2023-04-09T07:57:44;102397.88;;;12.73;54.07
57074;BME280;69035;54.392;18.574;2023-04-09T08:00:15;102402.28;;;12.73;53.78
57074;BME280;69035;54.392;18.574;2023-04-09T08:02:44;102396.22;;;12.91;53.95
57074;BME280;69035;54.392;18.574;2023-04-09T08:05:13;102393.59;;;12.93;54.52
57074;BME280;69035;54.392;18.574;2023-04-09T08:07:42;102405.00;;;12.85;54.33
57074;BME280;69035;54.392;18.574;2023-04-09T08:10:12;102402.38;;;12.91;54.62
57074;BME280;69035;54.392;18.574;2023-04-09T08:12:42;102404.13;;;12.88;54.15
57074;BME280;69035;54.392;18.574;2023-04-09T08:15:12;102405.78;;;12.72;54.55
57074;BME280;69035;54.392;18.574;2023-04-09T08:17:40;102402.31;;;12.75;54.54
57074;BME280;69035;54.392;18.574;2023-04-09T08:20:10;102403.13;;;12.66;53.44
57074;BME280;69035;54.392;18.574;2023-04-09T08:22:39;102413.75;;;12.78;54.25
57074;BME280;69035;54.392;18.574;2023-04-09T08:25:09;102410.94;;;12.53;53.84
57074;BME280;69035;54.392;18.574;2023-04-09T08:27:39;102412.72;;;12.58;54.30
57074;BME280;69035;54.392;18.574;2023-04-09T08:30:09;102408.38;;;12.63;54.46
57074;BME280;69035;54.392;18.574;2023-04-09T08:32:38;102412.72;;;12.56;54.81
57074;BME280;69035;54.392;18.574;2023-04-09T08:35:08;102406.56;;;12.54;54.46
57074;BME280;69035;54.392;18.574;2023-04-09T08:37:37;102408.31;;;12.58;55.08
57074;BME280;69035;54.392;18.574;2023-04-09T08:40:07;102406.59;;;12.59;55.43
57074;BME280;69035;54.392;18.574;2023-04-09T08:42:42;102409.84;;;12.27;55.17
57074;BME280;69035;54.392;18.574;2023-04-09T08:45:12;102413.00;;;11.89;56.32
57074;BME280;69035;54.392;18.574;2023-04-09T08:47:41;102426.81;;;11.71;58.00
57074;BME280;69035;54.392;18.574;2023-04-09T08:50:11;102422.53;;;11.79;57.26
57074;BME280;69035;54.392;18.574;2023-04-09T08:52:42;102411.97;;;11.76;57.04
57074;BME280;69035;54.392;18.574;2023-04-09T08:55:13;102409.06;;;11.52;57.78
57074;BME280;69035;54.392;18.574;2023-04-09T08:57:44;102420.69;;;11.68;57.75
57074;BME280;69035;54.392;18.574;2023-04-09T09:00:13;102421.66;;;11.78;57.74
57074;BME280;69035;54.392;18.574;2023-04-09T09:03:03;102425.97;;;11.72;56.67
57074;BME280;69035;54.392;18.574;2023-04-09T09:05:37;102424.97;;;11.62;57.13
57074;BME280;69035;54.392;18.574;2023-04-09T09:08:08;102429.13;;;11.43;57.13
57074;BME280;69035;54.392;18.574;2023-04-09T09:10:39;102435.19;;;11.36;57.33
57074;BME280;69035;54.392;18.574;2023-04-09T09:13:19;102437.94;;;11.42;57.74
57074;BME280;69035;54.392;18.574;2023-04-09T09:15:49;102432.81;;;11.56;57.67
57074;BME280;69035;54.392;18.574;2023-04-09T09:18:36;102443.53;;;11.69;57.70
57074;BME280;69035;54.392;18.574;2023-04-09T09:21:10;102439.19;;;11.76;57.02
57074;BME280;69035;54.392;18.574;2023-04-09T09:23:39;102438.41;;;11.86;56.79
57074;BME280;69035;54.392;18.574;2023-04-09T09:26:12;102440.22;;;11.89;56.56
57074;BME280;69035;54.392;18.574;2023-04-09T09:28:44;102446.13;;;11.66;56.72
57074;BME280;69035;54.392;18.574;2023-04-09T09:31:14;102439.97;;;11.69;56.96
57074;BME280;69035;54.392;18.574;2023-04-09T09:33:43;102445.94;;;11.51;55.97
57074;BME280;69035;54.392;18.574;2023-04-09T09:36:13;102435.44;;;11.54;56.83
57074;BME280;69035;54.392;18.574;2023-04-09T09:38:53;102440.94;;;11.76;55.26
57074;BME280;69035;54.392;18.574;2023-04-09T09:41:23;102438.13;;;11.60;55.85
57074;BME280;69035;54.392;18.574;2023-04-09T09:43:54;102437.34;;;11.69;56.57
57074;BME280;69035;54.392;18.574;2023-04-09T09:46:24;102437.38;;;11.71;55.72
57074;BME280;69035;54.392;18.574;2023-04-09T09:49:05;102439.94;;;11.64;55.68
57074;BME280;69035;54.392;18.574;2023-04-09T09:51:36;102432.09;;;11.69;55.38
57074;BME280;69035;54.392;18.574;2023-04-09T09:54:06;102441.06;;;11.88;55.86
57074;BME280;69035;54.392;18.574;2023-04-09T09:56:37;102431.56;;;12.01;54.59
57074;BME280;69035;54.392;18.574;2023-04-09T09:59:15;102431.59;;;12.02;54.23
57074;BME280;69035;54.392;18.574;2023-04-09T10:01:47;102426.25;;;11.95;54.78
57074;BME280;69035;54.392;18.574;2023-04-09T10:04:17;102426.44;;;12.12;54.29
57074;BME280;69035;54.392;18.574;2023-04-09T10:06:48;102426.47;;;12.16;53.76
57074;BME280;69035;54.392;18.574;2023-04-09T10:09:20;102419.44;;;12.18;54.46
57074;BME280;69035;54.392;18.574;2023-04-09T10:11:49;102423.03;;;12.25;53.68
57074;BME280;69035;54.392;18.574;2023-04-09T10:14:20;102425.75;;;12.37;54.01
57074;BME280;69035;54.392;18.574;2023-04-09T10:16:50;102421.44;;;12.44;53.59
57074;BME280;69035;54.392;18.574;2023-04-09T10:19:20;102415.22;;;12.37;53.42
57074;BME280;69035;54.392;18.574;2023-04-09T10:21:54;102419.78;;;12.59;52.93
57074;BME280;69035;54.392;18.574;2023-04-09T10:24:24;102409.19;;;12.52;52.32
57074;BME280;69035;54.392;18.574;2023-04-09T10:26:53;102417.13;;;12.55;52.44
57074;BME280;69035;54.392;18.574;2023-04-09T10:29:27;102424.16;;;12.58;51.22
57074;BME280;69035;54.392;18.574;2023-04-09T10:32:03;102421.50;;;12.56;51.53
57074;BME280;69035;54.392;18.574;2023-04-09T10:34:34;102416.22;;;12.56;51.91
57074;BME280;69035;54.392;18.574;2023-04-09T10:37:06;102427.69;;;12.57;51.15
57074;BME280;69035;54.392;18.574;2023-04-09T10:39:39;102424.97;;;12.49;50.63
57074;BME280;69035;54.392;18.574;2023-04-09T10:42:12;102431.13;;;12.45;50.12
57074;BME280;69035;54.392;18.574;2023-04-09T10:44:42;102429.38;;;12.50;51.38
57074;BME280;69035;54.392;18.574;2023-04-09T10:47:30;102437.25;;;12.44;50.81
57074;BME280;69035;54.392;18.574;2023-04-09T10:50:15;102432.88;;;12.48;50.95
57074;BME280;69035;54.392;18.574;2023-04-09T10:52:45;102431.22;;;12.64;51.21
57074;BME280;69035;54.392;18.574;2023-04-09T10:55:33;102427.88;;;12.86;51.15
57074;BME280;69035;54.392;18.574;2023-04-09T10:58:03;102433.22;;;12.99;50.78
57074;BME280;69035;54.392;18.574;2023-04-09T11:00:39;102428.88;;;13.08;50.36
57074;BME280;69035;54.392;18.574;2023-04-09T11:03:23;102426.22;;;13.01;49.77
57074;BME280;69035;54.392;18.574;2023-04-09T11:05:57;102440.22;;;12.92;50.38
57074;BME280;69035;54.392;18.574;2023-04-09T11:08:28;102436.75;;;12.96;49.89
57074;BME280;69035;54.392;18.574;2023-04-09T11:10:58;102442.69;;;12.67;50.18
57074;BME280;69035;54.392;18.574;2023-04-09T11:13:29;102443.59;;;12.72;50.42
57074;BME280;69035;54.392;18.574;2023-04-09T11:15:59;102440.84;;;12.51;50.20
57074;BME280;69035;54.392;18.574;2023-04-09T11:18:31;102447.84;;;12.52;50.46
57074;BME280;69035;54.392;18.574;2023-04-09T11:21:01;102450.69;;;12.78;49.54
57074;BME280;69035;54.392;18.574;2023-04-09T11:23:31;102447.38;;;13.10;49.58
57074;BME280;69035;54.392;18.574;2023-04-09T11:26:03;102447.59;;;13.47;48.90
57074;BME280;69035;54.392;18.574;2023-04-09T11:28:33;102452.72;;;13.24;48.55
57074;BME280;69035;54.392;18.574;2023-04-09T11:31:05;102441.25;;;13.16;48.12
57074;BME280;69035;54.392;18.574;2023-04-09T11:33:36;102444.84;;;13.29;48.94
57074;BME280;69035;54.392;18.574;2023-04-09T11:36:06;102451.13;;;13.60;48.52
57074;BME280;69035;54.392;18.574;2023-04-09T11:38:36;102444.97;;;13.56;48.03
57074;BME280;69035;54.392;18.574;2023-04-09T11:41:05;102447.63;;;13.56;48.81
57074;BME280;69035;54.392;18.574;2023-04-09T11:43:39;102443.22;;;13.60;48.42
57074;BME280;69035;54.392;18.574;2023-04-09T11:46:09;102449.31;;;13.42;48.29
57074;BME280;69035;54.392;18.574;2023-04-09T11:48:39;102450.19;;;13.38;48.82
57074;BME280;69035;54.392;18.574;2023-04-09T11:51:08;102448.44;;;13.43;48.76
57074;BME280;69035;54.392;18.574;2023-04-09T11:53:37;102455.44;;;13.36;48.74
57074;BME280;69035;54.392;18.574;2023-04-09T11:56:06;102448.28;;;13.17;49.14
57074;BME280;69035;54.392;18.574;2023-04-09T11:58:35;102459.00;;;13.41;49.58
57074;BME280;69035;54.392;18.574;2023-04-09T12:01:04;102452.03;;;13.60;48.62
57074;BME280;69035;54.392;18.574;2023-04-09T12:03:34;102445.00;;;13.63;48.61
57074;BME280;69035;54.392;18.574;2023-04-09T12:06:04;102450.22;;;13.44;48.49
57074;BME280;69035;54.392;18.574;2023-04-09T12:08:34;102451.06;;;13.35;48.80
57074;BME280;69035;54.392;18.574;2023-04-09T12:11:09;102451.97;;;13.42;48.76
57074;BME280;69035;54.392;18.574;2023-04-09T12:13:39;102452.03;;;13.53;48.90
57074;BME280;69035;54.392;18.574;2023-04-09T12:16:09;102452.06;;;13.70;48.73
57074;BME280;69035;54.392;18.574;2023-04-09T12:18:40;102451.19;;;13.63;48.46
57074;BME280;69035;54.392;18.574;2023-04-09T12:21:09;102439.63;;;13.42;48.12
57074;BME280;69035;54.392;18.574;2023-04-09T12:23:39;102444.97;;;13.47;49.00
57074;BME280;69035;54.392;18.574;2023-04-09T12:26:07;102442.16;;;13.24;48.70
57074;BME280;69035;54.392;18.574;2023-04-09T12:28:36;102444.72;;;13.12;48.77
57074;BME280;69035;54.392;18.574;2023-04-09T12:31:08;102448.97;;;12.82;49.07
57074;BME280;69035;54.392;18.574;2023-04-09T12:33:40;102442.91;;;12.97;49.11
57074;BME280;69035;54.392;18.574;2023-04-09T12:36:08;102447.31;;;12.99;48.86
57074;BME280;69035;54.392;18.574;2023-04-09T12:38:37;102444.59;;;12.88;48.81
57074;BME280;69035;54.392;18.574;2023-04-09T12:41:08;102446.41;;;12.97;48.70
57074;BME280;69035;54.392;18.574;2023-04-09T12:43:37;102441.09;;;12.91;48.93
57074;BME280;69035;54.392;18.574;2023-04-09T12:46:06;102444.53;;;12.78;49.43
57074;BME280;69035;54.392;18.574;2023-04-09T12:48:35;102449.81;;;12.81;49.35
57074;BME280;69035;54.392;18.574;2023-04-09T12:51:06;102447.75;;;12.40;49.44
57074;BME280;69035;54.392;18.574;2023-04-09T12:53:35;102450.16;;;12.13;49.79
57074;BME280;69035;54.392;18.574;2023-04-09T12:56:05;102450.84;;;11.97;50.25
57074;BME280;69035;54.392;18.574;2023-04-09T12:58:34;102454.47;;;12.05;51.21
57074;BME280;69035;54.392;18.574;2023-04-09T13:01:04;102443.25;;;12.25;50.46
57074;BME280;69035;54.392;18.574;2023-04-09T13:03:33;102452.09;;;12.34;50.81
57074;BME280;69035;54.392;18.574;2023-04-09T13:06:03;102445.13;;;12.38;50.42
57074;BME280;69035;54.392;18.574;2023-04-09T13:08:33;102444.31;;;12.48;49.81